Terminal Aerodrome Forecast
Issued by NWS

Home | Current Version | Previous Version | Text Only | Print | Product List | Glossary On
Versions: 1 2 3 4 5 6 7 8 9 10 11 12
000
FTUS46 KSTO 251139
TAFRBL
TAF
KRBL 251139Z 2512/2612 32005KT P6SM SCT250
     FM251900 16011KT P6SM OVC250
     FM260400 17010KT P6SM OVC150
     FM260800 17012G18KT P6SM -SHRA OVC050=

USA.gov is the U.S. government's official web portal to all federal, state and local government web resources and services.